createdAt,value
2022-10-29T00:00:19.373Z,37.30
2022-10-29T00:02:47.487Z,33.75
2022-10-29T00:05:15.652Z,47.88
2022-10-29T00:07:45.114Z,32.75
2022-10-29T00:10:13.143Z,38.47
2022-10-29T00:12:41.127Z,38.97
2022-10-29T00:15:10.440Z,36.92
2022-10-29T00:17:38.464Z,39.88
2022-10-29T00:22:36.804Z,35.78
2022-10-29T00:25:06.976Z,39.53
2022-10-29T00:27:34.984Z,37.20
2022-10-29T00:30:02.964Z,32.83
2022-10-29T00:32:30.952Z,37.15
2022-10-29T00:34:58.915Z,39.28
2022-10-29T00:37:26.873Z,37.92
2022-10-29T00:39:54.902Z,34.65
2022-10-29T00:42:24.267Z,36.85
2022-10-29T00:44:52.288Z,37.17
2022-10-29T00:47:24.245Z,28.98
2022-10-29T00:49:57.615Z,37.00
2022-10-29T00:52:28.720Z,39.97
2022-10-29T00:54:58.256Z,39.85
2022-10-29T00:57:32.417Z,34.28
2022-10-29T01:00:00.712Z,45.38
2022-10-29T01:02:30.297Z,32.65
2022-10-29T01:04:58.856Z,34.65
2022-10-29T01:07:27.332Z,41.85
2022-10-29T01:09:55.389Z,34.63
2022-10-29T01:12:38.326Z,38.75
2022-10-29T01:15:14.323Z,37.88
2022-10-29T01:17:54.371Z,41.50
2022-10-29T01:20:58.802Z,46.70
2022-10-29T01:24:05.040Z,42.75
2022-10-29T01:27:05.937Z,35.47
2022-10-29T01:29:50.724Z,43.15
2022-10-29T01:32:27.199Z,37.30
2022-10-29T01:35:01.516Z,36.83
2022-10-29T01:37:33.580Z,43.65
2022-10-29T01:40:07.366Z,38.65
2022-10-29T01:42:39.455Z,34.13
2022-10-29T01:45:13.316Z,47.40
2022-10-29T01:47:46.818Z,39.90
2022-10-29T01:50:19.634Z,40.28
2022-10-29T01:52:49.820Z,44.67
2022-10-29T01:55:20.994Z,42.92
2022-10-29T01:57:48.997Z,54.92
2022-10-29T02:00:19.765Z,46.67
2022-10-29T02:03:03.979Z,49.30
2022-10-29T02:05:35.809Z,51.53
2022-10-29T02:08:15.064Z,46.97
2022-10-29T02:10:51.616Z,49.25
2022-10-29T02:13:24.125Z,43.70
2022-10-29T02:15:56.622Z,47.95
2022-10-29T02:18:26.233Z,57.92
2022-10-29T02:20:54.493Z,36.33
2022-10-29T02:23:22.535Z,35.92
2022-10-29T02:25:50.608Z,38.60
2022-10-29T02:28:21.694Z,34.88
2022-10-29T02:30:49.707Z,44.17
2022-10-29T02:33:17.832Z,46.42
2022-10-29T02:35:47.212Z,32.78
2022-10-29T02:38:15.201Z,29.48
2022-10-29T02:40:43.211Z,35.92
2022-10-29T02:43:11.291Z,52.70
2022-10-29T02:45:39.425Z,40.30
2022-10-29T02:48:07.879Z,70.80
2022-10-29T02:50:36.344Z,52.22
2022-10-29T02:53:05.762Z,95.55
2022-10-29T02:55:33.788Z,188.43
2022-10-29T02:58:01.763Z,169.60
2022-10-29T03:00:29.848Z,190.25
2022-10-29T03:02:58.316Z,203.20
2022-10-29T03:05:26.577Z,115.38
2022-10-29T03:07:54.653Z,110.97
2022-10-29T03:10:24.001Z,140.60
2022-10-29T03:12:52.261Z,127.97
2022-10-29T03:15:20.255Z,117.78
2022-10-29T03:17:48.274Z,148.98
2022-10-29T03:20:16.445Z,107.57
2022-10-29T03:22:44.500Z,120.68
2022-10-29T03:25:12.874Z,72.32
2022-10-29T03:27:43.939Z,73.70
2022-10-29T03:30:13.710Z,97.78
2022-10-29T03:32:41.781Z,107.70
2022-10-29T03:35:11.231Z,172.95
2022-10-29T03:37:39.328Z,119.90
2022-10-29T03:40:08.888Z,132.75
2022-10-29T03:42:36.867Z,129.20
2022-10-29T03:45:06.968Z,74.90
2022-10-29T03:47:35.280Z,54.58
2022-10-29T03:50:03.457Z,61.47
2022-10-29T03:52:31.436Z,61.95
2022-10-29T03:54:59.453Z,42.60
2022-10-29T03:57:27.485Z,62.00
2022-10-29T03:59:56.131Z,115.47
2022-10-29T04:02:26.107Z,90.63
2022-10-29T04:04:54.308Z,109.30
2022-10-29T04:07:22.279Z,175.38
2022-10-29T04:09:50.257Z,98.22
2022-10-29T04:12:18.285Z,92.95
2022-10-29T04:14:48.398Z,96.07
2022-10-29T04:17:16.565Z,122.32
2022-10-29T04:19:45.917Z,103.53
2022-10-29T04:28:41.769Z,115.88
2022-10-29T04:30:38.008Z,152.27
2022-10-29T04:33:06.039Z,86.88
2022-10-29T04:35:35.397Z,170.77
2022-10-29T04:38:09.327Z,83.20
2022-10-29T04:40:37.337Z,219.52
2022-10-29T04:43:05.361Z,145.63
2022-10-29T04:45:33.640Z,124.18
2022-10-29T04:48:02.022Z,158.05
2022-10-29T04:50:30.693Z,105.75
2022-10-29T04:53:01.022Z,76.22
2022-10-29T04:55:29.831Z,138.55
2022-10-29T04:57:58.321Z,178.30
2022-10-29T05:00:26.488Z,130.63
2022-10-29T05:02:55.209Z,112.68
2022-10-29T05:05:23.847Z,186.63
2022-10-29T05:07:57.816Z,90.35
2022-10-29T05:10:28.126Z,174.45
2022-10-29T05:13:00.188Z,134.07
2022-10-29T05:15:29.156Z,97.47
2022-10-29T05:17:57.952Z,138.43
2022-10-29T05:20:27.031Z,106.10
2022-10-29T05:23:00.345Z,143.43
2022-10-29T05:25:30.992Z,132.55
2022-10-29T05:28:07.104Z,186.65
2022-10-29T05:30:35.531Z,183.40
2022-10-29T05:33:06.496Z,247.63
2022-10-29T05:35:34.924Z,243.98
2022-10-29T05:38:03.229Z,168.80
2022-10-29T05:40:32.915Z,220.88
2022-10-29T05:43:01.378Z,160.60
2022-10-29T05:45:29.685Z,160.35
2022-10-29T05:47:58.584Z,240.02
2022-10-29T05:50:27.104Z,226.13
2022-10-29T05:52:59.141Z,269.85
2022-10-29T05:55:28.445Z,233.00
2022-10-29T05:57:59.117Z,188.00
2022-10-29T06:00:28.027Z,152.40
2022-10-29T06:02:56.660Z,241.30
2022-10-29T06:05:25.374Z,275.52
2022-10-29T06:07:56.165Z,138.38
2022-10-29T06:10:25.211Z,222.77
2022-10-29T06:12:53.199Z,228.07
2022-10-29T06:15:22.875Z,153.30
2022-10-29T06:17:50.894Z,148.25
2022-10-29T06:20:22.163Z,130.90
2022-10-29T06:22:58.081Z,174.00
2022-10-29T06:25:26.926Z,137.93
2022-10-29T06:28:02.437Z,121.20
2022-10-29T06:30:33.463Z,141.13
2022-10-29T06:33:02.116Z,165.25
2022-10-29T06:35:30.347Z,240.35
2022-10-29T06:37:58.979Z,186.90
2022-10-29T06:40:27.437Z,105.68
2022-10-29T06:43:02.521Z,159.57
2022-10-29T06:45:33.068Z,133.13
2022-10-29T06:48:01.223Z,144.65
2022-10-29T06:50:29.771Z,122.80
2022-10-29T06:52:59.412Z,185.00
2022-10-29T06:55:28.058Z,174.35
2022-10-29T06:58:00.920Z,214.15
2022-10-29T07:00:29.395Z,226.23
2022-10-29T07:02:59.161Z,228.45
2022-10-29T07:05:28.336Z,175.57
2022-10-29T07:07:57.784Z,225.10
2022-10-29T07:10:26.893Z,271.08
2022-10-29T07:12:55.121Z,165.43
2022-10-29T07:15:27.353Z,272.45
2022-10-29T07:17:59.154Z,148.55
2022-10-29T07:20:27.813Z,178.10
2022-10-29T07:22:57.619Z,187.60
2022-10-29T07:25:25.953Z,222.00
2022-10-29T07:27:54.317Z,255.15
2022-10-29T07:30:22.860Z,270.35
2022-10-29T07:32:50.828Z,258.67
2022-10-29T07:35:20.218Z,198.32
2022-10-29T07:37:48.221Z,233.18
2022-10-29T07:40:16.907Z,261.20
2022-10-29T07:42:44.923Z,247.02
2022-10-29T07:45:12.915Z,220.25
2022-10-29T07:47:42.886Z,247.15
2022-10-29T07:50:11.344Z,208.20
2022-10-29T07:52:40.944Z,187.05
2022-10-29T07:55:10.020Z,209.80
2022-10-29T07:57:38.015Z,187.38
2022-10-29T08:00:06.871Z,141.85
2022-10-29T08:02:40.081Z,193.68
2022-10-29T08:05:09.027Z,177.15
2022-10-29T08:07:37.046Z,159.27
2022-10-29T08:10:07.392Z,182.38
2022-10-29T08:12:35.415Z,188.77
2022-10-29T08:15:03.413Z,218.02
2022-10-29T08:17:31.579Z,179.63
2022-10-29T08:19:59.640Z,183.57
2022-10-29T08:22:27.645Z,186.18
2022-10-29T08:24:55.624Z,192.18
2022-10-29T08:27:25.037Z,172.57
2022-10-29T08:29:53.113Z,158.10
2022-10-29T08:32:37.221Z,160.43
2022-10-29T08:35:09.309Z,159.85
2022-10-29T08:37:37.312Z,153.52
2022-10-29T08:40:05.817Z,180.38
2022-10-29T08:42:45.580Z,183.68
2022-10-29T08:45:24.845Z,165.57
2022-10-29T08:48:16.481Z,221.52
2022-10-29T08:50:48.423Z,169.98
2022-10-29T08:53:23.280Z,146.60
2022-10-29T08:55:52.086Z,164.20
2022-10-29T08:58:29.352Z,151.98
2022-10-29T09:00:59.378Z,150.43
2022-10-29T09:03:29.975Z,117.22
2022-10-29T09:06:07.969Z,138.55
2022-10-29T09:08:45.902Z,116.50
2022-10-29T09:11:37.395Z,108.03
2022-10-29T09:14:28.467Z,113.47
2022-10-29T09:17:02.746Z,115.47
2022-10-29T09:19:46.726Z,108.85
2022-10-29T09:22:23.716Z,100.80
2022-10-29T09:25:04.346Z,106.13
2022-10-29T09:27:44.912Z,104.88
2022-10-29T09:30:17.013Z,122.32
2022-10-29T09:32:58.020Z,104.22
2022-10-29T09:35:38.775Z,113.03
2022-10-29T09:38:17.128Z,85.47
2022-10-29T09:40:46.052Z,90.72
2022-10-29T09:43:27.087Z,97.57
2022-10-29T09:46:01.967Z,94.22
2022-10-29T09:48:35.045Z,90.10
2022-10-29T09:51:14.488Z,76.88
2022-10-29T09:53:42.521Z,81.07
2022-10-29T09:56:10.697Z,79.75
2022-10-29T09:58:43.136Z,75.72
2022-10-29T10:01:12.834Z,72.10
2022-10-29T10:03:45.685Z,68.35
2022-10-29T10:06:15.256Z,75.07
2022-10-29T10:09:00.875Z,74.53
2022-10-29T10:11:34.931Z,73.38
2022-10-29T10:14:09.071Z,70.85
2022-10-29T10:16:38.675Z,65.55
2022-10-29T10:19:22.635Z,72.53
2022-10-29T10:21:58.498Z,64.82
2022-10-29T10:24:32.596Z,64.25
2022-10-29T10:27:00.981Z,56.95
2022-10-29T10:29:29.565Z,58.90
2022-10-29T10:32:17.140Z,64.10
2022-10-29T10:34:45.219Z,65.43
2022-10-29T10:37:18.984Z,62.05
2022-10-29T10:39:49.648Z,58.60
2022-10-29T10:42:21.397Z,50.58
2022-10-29T10:44:53.187Z,50.17
2022-10-29T10:47:25.101Z,61.25
2022-10-29T10:49:53.390Z,53.55
2022-10-29T10:52:26.344Z,57.15
2022-10-29T10:55:00.744Z,57.58
2022-10-29T10:57:33.573Z,53.78
2022-10-29T11:00:06.451Z,49.05
2022-10-29T11:02:48.261Z,41.65
2022-10-29T11:05:19.570Z,48.58
2022-10-29T11:07:54.080Z,38.33
2022-10-29T11:10:30.264Z,42.50
2022-10-29T11:13:02.058Z,41.00
2022-10-29T11:15:37.148Z,41.58
2022-10-29T11:20:56.644Z,37.88
2022-10-29T11:23:30.652Z,35.55
2022-10-29T11:26:04.911Z,31.98
2022-10-29T11:28:38.823Z,29.65
2022-10-29T11:31:15.392Z,34.55
2022-10-29T11:33:52.440Z,33.65
2022-10-29T11:36:23.378Z,34.00
2022-10-29T11:38:55.125Z,35.50
2022-10-29T11:41:35.463Z,30.60
2022-10-29T11:44:03.529Z,28.08
2022-10-29T11:46:40.416Z,30.05
2022-10-29T11:49:24.459Z,31.25
2022-10-29T11:52:01.481Z,29.70
2022-10-29T11:54:41.621Z,34.38
2022-10-29T11:57:16.753Z,31.60
2022-10-29T12:00:09.763Z,26.45
2022-10-29T12:03:07.670Z,30.92
2022-10-29T12:05:43.468Z,26.58
2022-10-29T12:08:21.873Z,35.28
2022-10-29T12:10:55.653Z,24.52
2022-10-29T12:13:43.116Z,28.15
2022-10-29T12:16:24.310Z,30.20
2022-10-29T12:18:59.101Z,26.77
2022-10-29T12:21:38.627Z,26.60
2022-10-29T12:24:29.028Z,29.20
2022-10-29T12:27:04.239Z,28.55
2022-10-29T12:29:40.147Z,30.10
2022-10-29T12:32:14.813Z,29.10
2022-10-29T12:34:49.464Z,31.05
2022-10-29T12:37:30.644Z,29.83
2022-10-29T12:40:03.903Z,26.55
2022-10-29T12:42:32.361Z,28.70
2022-10-29T12:45:20.265Z,29.77
2022-10-29T12:47:56.103Z,31.02
2022-10-29T12:50:34.033Z,24.75
2022-10-29T12:53:09.044Z,25.80
2022-10-29T12:55:38.126Z,26.67
2022-10-29T12:58:38.334Z,27.42
2022-10-29T13:01:06.612Z,34.28
2022-10-29T13:04:00.361Z,29.58
2022-10-29T13:06:49.684Z,29.85
2022-10-29T13:09:21.118Z,29.42
2022-10-29T13:11:51.512Z,23.98
2022-10-29T13:14:31.745Z,26.42
2022-10-29T13:17:00.733Z,25.63
2022-10-29T13:19:50.893Z,22.88
2022-10-29T13:22:52.649Z,25.67
2022-10-29T13:25:52.559Z,27.75
2022-10-29T13:28:53.507Z,26.42
2022-10-29T13:31:50.035Z,27.00
2022-10-29T13:34:56.532Z,31.42
2022-10-29T13:37:51.946Z,24.70
2022-10-29T13:40:39.790Z,28.10
2022-10-29T13:43:16.575Z,30.85
2022-10-29T13:45:50.812Z,30.90
2022-10-29T13:48:26.374Z,29.55
2022-10-29T13:50:57.848Z,29.17
2022-10-29T13:53:35.491Z,29.67
2022-10-29T13:56:03.755Z,29.67
2022-10-29T13:58:37.145Z,28.30
2022-10-29T14:01:10.474Z,30.73
2022-10-29T14:03:48.140Z,28.10
2022-10-29T14:06:21.512Z,27.75
2022-10-29T14:08:55.095Z,28.52
2022-10-29T14:11:27.781Z,29.90
2022-10-29T14:14:00.508Z,28.48
2022-10-29T14:16:30.373Z,25.33
2022-10-29T14:18:58.376Z,31.13
2022-10-29T14:21:28.653Z,27.58
2022-10-29T14:24:01.185Z,23.77
2022-10-29T14:26:30.829Z,25.02
2022-10-29T14:29:14.572Z,25.95
2022-10-29T14:31:42.646Z,29.15
2022-10-29T14:34:24.587Z,33.72
2022-10-29T14:36:54.551Z,40.15
2022-10-29T14:39:32.806Z,42.20
2022-10-29T14:44:57.060Z,33.95
2022-10-29T14:47:32.269Z,36.53
2022-10-29T14:50:03.712Z,35.55
2022-10-29T14:52:35.111Z,37.20
2022-10-29T14:55:07.843Z,34.58
2022-10-29T14:57:41.616Z,42.03
2022-10-29T15:00:24.370Z,37.70
2022-10-29T15:02:53.920Z,30.77
2022-10-29T15:05:25.608Z,31.40
2022-10-29T15:08:04.450Z,36.30
2022-10-29T15:10:32.543Z,32.42
2022-10-29T15:13:14.973Z,31.90
2022-10-29T15:15:53.673Z,37.58
2022-10-29T15:18:23.764Z,34.30
2022-10-29T15:20:52.636Z,29.80
2022-10-29T15:23:24.582Z,38.33
2022-10-29T15:25:55.368Z,33.42
2022-10-29T15:28:25.845Z,31.88
2022-10-29T15:30:55.380Z,34.60
2022-10-29T15:33:28.344Z,35.28
2022-10-29T15:35:59.126Z,37.67
2022-10-29T15:39:00.591Z,30.27
2022-10-29T15:41:37.587Z,32.42
2022-10-29T15:44:42.403Z,34.72
2022-10-29T15:47:27.393Z,37.00
2022-10-29T15:49:55.697Z,36.13
2022-10-29T15:52:34.509Z,32.65
2022-10-29T15:55:03.735Z,32.03
2022-10-29T15:57:32.502Z,35.45
2022-10-29T16:00:05.942Z,38.33
2022-10-29T16:02:35.685Z,34.33
2022-10-29T16:05:03.811Z,33.13
2022-10-29T16:07:31.920Z,30.67
2022-10-29T16:10:01.759Z,32.55
2022-10-29T16:12:29.879Z,33.80
2022-10-29T16:14:57.983Z,38.22
2022-10-29T16:17:25.928Z,44.42
2022-10-29T16:19:55.369Z,35.05
2022-10-29T16:22:29.535Z,34.10
2022-10-29T16:24:57.566Z,35.67
2022-10-29T16:27:25.567Z,31.60
2022-10-29T16:29:53.614Z,34.42
2022-10-29T16:32:23.498Z,36.90
2022-10-29T16:34:52.192Z,32.28
2022-10-29T16:37:22.421Z,34.58
2022-10-29T16:39:50.417Z,38.47
2022-10-29T16:42:31.089Z,32.50
2022-10-29T16:44:59.143Z,39.13
2022-10-29T16:47:27.527Z,38.25
2022-10-29T16:49:55.679Z,32.33
2022-10-29T16:52:28.901Z,37.88
2022-10-29T16:54:57.760Z,39.03
2022-10-29T16:57:26.006Z,37.00
2022-10-29T16:59:54.016Z,37.63
2022-10-29T17:02:21.983Z,36.63
2022-10-29T17:04:49.997Z,40.45
2022-10-29T17:07:18.267Z,40.65
2022-10-29T17:09:47.626Z,37.80
2022-10-29T17:12:15.769Z,38.40
2022-10-29T17:14:43.753Z,44.25
2022-10-29T17:17:11.796Z,41.40
2022-10-29T17:19:39.756Z,49.55
2022-10-29T17:22:10.567Z,45.33
2022-10-29T17:24:38.785Z,42.92
2022-10-29T17:27:08.161Z,41.03
2022-10-29T17:29:36.571Z,42.10
2022-10-29T17:32:06.130Z,40.25
2022-10-29T17:34:34.645Z,38.72
2022-10-29T17:37:02.811Z,44.38
2022-10-29T17:39:30.914Z,43.00
2022-10-29T17:41:59.127Z,41.83
2022-10-29T17:44:28.604Z,36.92
2022-10-29T17:46:56.609Z,37.75
2022-10-29T17:49:25.808Z,39.03
2022-10-29T17:51:54.091Z,48.70
2022-10-29T17:54:22.632Z,42.00
2022-10-29T17:56:51.559Z,45.45
2022-10-29T17:59:19.584Z,44.58
2022-10-29T18:01:49.038Z,42.83
2022-10-29T18:04:17.156Z,40.40
2022-10-29T18:06:45.208Z,45.85
2022-10-29T18:09:17.047Z,38.55
2022-10-29T18:11:50.433Z,41.65
2022-10-29T18:14:18.565Z,43.70
2022-10-29T18:16:47.955Z,47.75
2022-10-29T18:19:15.969Z,45.58
2022-10-29T18:21:44.027Z,41.10
2022-10-29T18:24:12.364Z,43.30
2022-10-29T18:26:40.401Z,42.60
2022-10-29T18:29:11.694Z,40.28
2022-10-29T18:31:42.273Z,40.33
2022-10-29T18:34:12.688Z,45.47
2022-10-29T18:36:40.720Z,44.55
2022-10-29T18:39:09.010Z,43.60
2022-10-29T18:41:37.133Z,38.53
2022-10-29T18:44:05.503Z,41.25
2022-10-29T18:46:34.031Z,40.40
2022-10-29T18:49:02.299Z,43.60
2022-10-29T18:51:32.880Z,37.53
2022-10-29T18:54:01.014Z,39.83
2022-10-29T18:56:30.896Z,43.67
2022-10-29T18:59:00.419Z,37.13
2022-10-29T19:01:31.662Z,44.60
2022-10-29T19:04:01.683Z,43.28
2022-10-29T19:06:32.954Z,45.60
2022-10-29T19:09:02.083Z,40.58
2022-10-29T19:11:30.582Z,47.15
2022-10-29T19:14:00.660Z,40.45
2022-10-29T19:16:29.795Z,42.53
2022-10-29T19:18:59.879Z,44.60
2022-10-29T19:21:28.514Z,41.08
2022-10-29T19:23:59.456Z,46.53
2022-10-29T19:26:29.751Z,47.80
2022-10-29T19:29:00.895Z,49.85
2022-10-29T19:31:31.146Z,45.33
2022-10-29T19:34:00.447Z,48.75
2022-10-29T19:36:30.396Z,47.33
2022-10-29T19:39:00.542Z,53.95
2022-10-29T19:41:29.404Z,50.58
2022-10-29T19:44:00.109Z,50.03
2022-10-29T19:46:28.829Z,44.75
2022-10-29T19:48:58.435Z,44.97
2022-10-29T19:51:27.168Z,44.47
2022-10-29T19:53:57.917Z,47.67
2022-10-29T19:56:27.321Z,40.22
2022-10-29T19:58:55.403Z,49.47
2022-10-29T20:01:23.479Z,45.17
2022-10-29T20:03:51.597Z,48.70
2022-10-29T20:06:19.681Z,45.67
2022-10-29T20:08:47.652Z,42.20
2022-10-29T20:11:15.686Z,46.05
2022-10-29T20:13:45.080Z,49.30
2022-10-29T20:16:16.521Z,46.92
2022-10-29T20:18:44.788Z,46.78
2022-10-29T20:21:13.676Z,50.67
2022-10-29T20:23:42.083Z,45.63
2022-10-29T20:26:10.416Z,47.85
2022-10-29T20:28:38.427Z,48.33
2022-10-29T20:31:25.539Z,50.47
2022-10-29T20:33:57.648Z,44.95
2022-10-29T20:36:26.467Z,54.08
2022-10-29T20:38:55.256Z,50.03
2022-10-29T20:41:23.573Z,50.65
2022-10-29T20:43:55.779Z,50.67
2022-10-29T20:46:25.810Z,50.70
2022-10-29T20:48:53.855Z,48.97
2022-10-29T20:51:22.814Z,53.03
2022-10-29T20:53:51.065Z,58.65
2022-10-29T20:56:20.014Z,58.65
2022-10-29T20:58:47.989Z,53.47
2022-10-29T21:01:17.494Z,55.72
2022-10-29T21:03:48.668Z,59.30
2022-10-29T21:06:17.634Z,46.00
2022-10-29T21:08:46.200Z,53.92
2022-10-29T21:11:16.007Z,49.17
2022-10-29T21:13:44.388Z,47.72
2022-10-29T21:16:17.196Z,46.58
2022-10-29T21:18:48.485Z,47.92
2022-10-29T21:21:17.315Z,46.25
2022-10-29T21:23:45.373Z,53.10
2022-10-29T21:26:15.785Z,48.80
2022-10-29T21:28:44.559Z,46.47
2022-10-29T21:31:12.859Z,44.63
2022-10-29T21:33:40.977Z,48.17
2022-10-29T21:36:13.008Z,49.80
2022-10-29T21:38:41.370Z,45.22
2022-10-29T21:41:09.358Z,47.80
2022-10-29T21:43:38.256Z,47.25
2022-10-29T21:46:06.404Z,43.05
2022-10-29T21:48:34.844Z,45.67
2022-10-29T21:51:04.672Z,46.63
2022-10-29T21:53:34.619Z,45.30
2022-10-29T21:56:05.450Z,44.95
2022-10-29T21:58:33.824Z,46.30
2022-10-29T22:01:07.220Z,44.05
2022-10-29T22:03:36.353Z,44.30
2022-10-29T22:06:06.053Z,47.42
2022-10-29T22:08:36.191Z,42.67
2022-10-29T22:11:05.062Z,39.83
2022-10-29T22:13:34.606Z,34.30
2022-10-29T22:16:03.285Z,44.17
2022-10-29T22:18:32.286Z,39.58
2022-10-29T22:21:07.620Z,36.05
2022-10-29T22:23:38.246Z,36.13
2022-10-29T22:26:06.496Z,40.50
2022-10-29T22:28:34.670Z,35.58
2022-10-29T22:31:03.679Z,40.53
2022-10-29T22:33:33.316Z,37.67
2022-10-29T22:36:10.120Z,39.15
2022-10-29T22:38:39.562Z,31.88
2022-10-29T22:41:08.904Z,35.28
2022-10-29T22:43:36.914Z,34.00
2022-10-29T22:46:06.361Z,33.60
2022-10-29T22:48:34.977Z,34.55
2022-10-29T22:51:04.825Z,33.25
2022-10-29T22:53:33.140Z,34.38
2022-10-29T22:56:03.100Z,31.42
2022-10-29T22:58:31.273Z,32.80
2022-10-29T23:01:03.737Z,31.02
2022-10-29T23:03:31.826Z,30.55
2022-10-29T23:06:00.630Z,31.00
2022-10-29T23:08:29.059Z,26.98
2022-10-29T23:10:57.127Z,29.30
2022-10-29T23:13:26.579Z,28.50
2022-10-29T23:15:54.605Z,32.88
2022-10-29T23:18:22.591Z,28.30
2022-10-29T23:20:58.050Z,27.80
2022-10-29T23:23:26.096Z,26.23
2022-10-29T23:25:57.743Z,27.23
2022-10-29T23:28:27.513Z,32.72
2022-10-29T23:30:55.709Z,29.13
2022-10-29T23:33:24.109Z,27.85
2022-10-29T23:35:52.356Z,29.02
2022-10-29T23:38:20.337Z,34.03
2022-10-29T23:40:49.260Z,27.13
2022-10-29T23:43:17.289Z,26.60
2022-10-29T23:45:46.679Z,31.48
2022-10-29T23:48:14.800Z,28.70
2022-10-29T23:50:43.136Z,25.77
2022-10-29T23:53:11.121Z,32.55
2022-10-29T23:55:39.660Z,29.17
2022-10-29T23:58:07.676Z,26.42
